sensor_id;sensor_type;location;lat;lon;timestamp;P1;durP1;ratioP1;P2;durP2;ratioP2
22610;SDS011;11472;45.494;12.142;2023-02-01T00:00:01;116.40;;;64.30;;
22610;SDS011;11472;45.494;12.142;2023-02-01T00:01:06;116.40;;;64.30;;
22610;SDS011;11472;45.494;12.142;2023-02-01T00:02:01;116.40;;;64.30;;
22610;SDS011;11472;45.494;12.142;2023-02-01T00:03:01;116.40;;;64.30;;
22610;SDS011;11472;45.494;12.142;2023-02-01T00:04:01;110.00;;;60.70;;
22610;SDS011;11472;45.494;12.142;2023-02-01T00:05:01;110.00;;;60.70;;
22610;SDS011;11472;45.494;12.142;2023-02-01T00:06:01;110.00;;;60.70;;
22610;SDS011;11472;45.494;12.142;2023-02-01T00:07:01;110.00;;;60.70;;
22610;SDS011;11472;45.494;12.142;2023-02-01T00:08:01;110.00;;;60.70;;
22610;SDS011;11472;45.494;12.142;2023-02-01T00:09:01;110.00;;;60.70;;
22610;SDS011;11472;45.494;12.142;2023-02-01T00:10:01;110.00;;;60.70;;
22610;SDS011;11472;45.494;12.142;2023-02-01T00:12:02;110.00;;;60.70;;
22610;SDS011;11472;45.494;12.142;2023-02-01T00:13:01;110.00;;;60.70;;
22610;SDS011;11472;45.494;12.142;2023-02-01T00:14:01;110.00;;;60.70;;
22610;SDS011;11472;45.494;12.142;2023-02-01T00:15:01;110.00;;;60.70;;
22610;SDS011;11472;45.494;12.142;2023-02-01T00:16:03;110.00;;;60.70;;
22610;SDS011;11472;45.494;12.142;2023-02-01T00:17:01;110.00;;;60.70;;
22610;SDS011;11472;45.494;12.142;2023-02-01T00:18:01;110.00;;;60.70;;
22610;SDS011;11472;45.494;12.142;2023-02-01T00:20:01;114.50;;;61.90;;
22610;SDS011;11472;45.494;12.142;2023-02-01T00:21:01;114.50;;;61.90;;
22610;SDS011;11472;45.494;12.142;2023-02-01T00:22:01;114.50;;;61.90;;
22610;SDS011;11472;45.494;12.142;2023-02-01T00:23:01;114.50;;;61.90;;
22610;SDS011;11472;45.494;12.142;2023-02-01T00:24:01;114.50;;;61.90;;
22610;SDS011;11472;45.494;12.142;2023-02-01T00:25:01;114.50;;;61.90;;
22610;SDS011;11472;45.494;12.142;2023-02-01T00:26:02;114.50;;;61.90;;
22610;SDS011;11472;45.494;12.142;2023-02-01T00:27:01;114.50;;;61.90;;
22610;SDS011;11472;45.494;12.142;2023-02-01T00:28:01;114.50;;;61.90;;
22610;SDS011;11472;45.494;12.142;2023-02-01T00:29:02;114.50;;;61.90;;
22610;SDS011;11472;45.494;12.142;2023-02-01T00:30:01;114.50;;;61.90;;
22610;SDS011;11472;45.494;12.142;2023-02-01T00:31:02;114.50;;;61.90;;
22610;SDS011;11472;45.494;12.142;2023-02-01T00:32:01;114.50;;;61.90;;
22610;SDS011;11472;45.494;12.142;2023-02-01T00:33:01;114.50;;;61.90;;
22610;SDS011;11472;45.494;12.142;2023-02-01T00:34:01;109.90;;;59.40;;
22610;SDS011;11472;45.494;12.142;2023-02-01T00:35:01;109.90;;;59.40;;
22610;SDS011;11472;45.494;12.142;2023-02-01T00:36:03;109.90;;;59.40;;
22610;SDS011;11472;45.494;12.142;2023-02-01T00:37:01;109.90;;;59.40;;
22610;SDS011;11472;45.494;12.142;2023-02-01T00:38:01;109.90;;;59.40;;
22610;SDS011;11472;45.494;12.142;2023-02-01T00:39:01;109.90;;;59.40;;
22610;SDS011;11472;45.494;12.142;2023-02-01T00:40:01;109.90;;;59.40;;
22610;SDS011;11472;45.494;12.142;2023-02-01T00:41:03;109.90;;;59.40;;
22610;SDS011;11472;45.494;12.142;2023-02-01T00:42:02;109.90;;;59.40;;
22610;SDS011;11472;45.494;12.142;2023-02-01T00:43:01;109.90;;;59.40;;
22610;SDS011;11472;45.494;12.142;2023-02-01T00:44:01;109.90;;;59.40;;
22610;SDS011;11472;45.494;12.142;2023-02-01T00:45:01;109.90;;;59.40;;
22610;SDS011;11472;45.494;12.142;2023-02-01T00:46:01;109.90;;;59.40;;
22610;SDS011;11472;45.494;12.142;2023-02-01T00:47:01;109.90;;;59.40;;
22610;SDS011;11472;45.494;12.142;2023-02-01T00:48:01;109.90;;;59.40;;
22610;SDS011;11472;45.494;12.142;2023-02-01T00:49:01;111.00;;;61.00;;
22610;SDS011;11472;45.494;12.142;2023-02-01T00:50:01;111.00;;;61.00;;
22610;SDS011;11472;45.494;12.142;2023-02-01T00:51:02;111.00;;;61.00;;
22610;SDS011;11472;45.494;12.142;2023-02-01T00:52:01;111.00;;;61.00;;
22610;SDS011;11472;45.494;12.142;2023-02-01T00:53:01;111.00;;;61.00;;
22610;SDS011;11472;45.494;12.142;2023-02-01T00:54:01;111.00;;;61.00;;
22610;SDS011;11472;45.494;12.142;2023-02-01T00:55:01;111.00;;;61.00;;
22610;SDS011;11472;45.494;12.142;2023-02-01T00:56:01;111.00;;;61.00;;
22610;SDS011;11472;45.494;12.142;2023-02-01T00:57:01;111.00;;;61.00;;
22610;SDS011;11472;45.494;12.142;2023-02-01T00:58:01;111.00;;;61.00;;
22610;SDS011;11472;45.494;12.142;2023-02-01T00:59:01;111.00;;;61.00;;
22610;SDS011;11472;45.494;12.142;2023-02-01T01:00:02;111.00;;;61.00;;
22610;SDS011;11472;45.494;12.142;2023-02-01T01:02:01;111.00;;;61.00;;
22610;SDS011;11472;45.494;12.142;2023-02-01T01:03:01;111.00;;;61.00;;
22610;SDS011;11472;45.494;12.142;2023-02-01T01:04:01;109.40;;;60.40;;
22610;SDS011;11472;45.494;12.142;2023-02-01T01:05:01;109.40;;;60.40;;
22610;SDS011;11472;45.494;12.142;2023-02-01T01:06:04;109.40;;;60.40;;
22610;SDS011;11472;45.494;12.142;2023-02-01T01:07:01;109.40;;;60.40;;
22610;SDS011;11472;45.494;12.142;2023-02-01T01:08:01;109.40;;;60.40;;
22610;SDS011;11472;45.494;12.142;2023-02-01T01:09:04;109.40;;;60.40;;
22610;SDS011;11472;45.494;12.142;2023-02-01T01:10:01;109.40;;;60.40;;
22610;SDS011;11472;45.494;12.142;2023-02-01T01:11:06;109.40;;;60.40;;
22610;SDS011;11472;45.494;12.142;2023-02-01T01:12:02;109.40;;;60.40;;
22610;SDS011;11472;45.494;12.142;2023-02-01T01:13:01;109.40;;;60.40;;
22610;SDS011;11472;45.494;12.142;2023-02-01T01:14:01;109.40;;;60.40;;
22610;SDS011;11472;45.494;12.142;2023-02-01T01:15:01;109.40;;;60.40;;
22610;SDS011;11472;45.494;12.142;2023-02-01T01:16:03;109.40;;;60.40;;
22610;SDS011;11472;45.494;12.142;2023-02-01T01:17:01;109.40;;;60.40;;
22610;SDS011;11472;45.494;12.142;2023-02-01T01:18:01;109.40;;;60.40;;
22610;SDS011;11472;45.494;12.142;2023-02-01T01:19:01;106.30;;;58.80;;
22610;SDS011;11472;45.494;12.142;2023-02-01T01:20:01;106.30;;;58.80;;
22610;SDS011;11472;45.494;12.142;2023-02-01T01:21:01;106.30;;;58.80;;
22610;SDS011;11472;45.494;12.142;2023-02-01T01:22:01;106.30;;;58.80;;
22610;SDS011;11472;45.494;12.142;2023-02-01T01:23:01;106.30;;;58.80;;
22610;SDS011;11472;45.494;12.142;2023-02-01T01:24:01;106.30;;;58.80;;
22610;SDS011;11472;45.494;12.142;2023-02-01T01:25:01;106.30;;;58.80;;
22610;SDS011;11472;45.494;12.142;2023-02-01T01:26:04;106.30;;;58.80;;
22610;SDS011;11472;45.494;12.142;2023-02-01T01:27:01;106.30;;;58.80;;
22610;SDS011;11472;45.494;12.142;2023-02-01T01:28:01;106.30;;;58.80;;
22610;SDS011;11472;45.494;12.142;2023-02-01T01:29:01;106.30;;;58.80;;
22610;SDS011;11472;45.494;12.142;2023-02-01T01:30:01;106.30;;;58.80;;
22610;SDS011;11472;45.494;12.142;2023-02-01T01:31:01;106.30;;;58.80;;
22610;SDS011;11472;45.494;12.142;2023-02-01T01:32:01;106.30;;;58.80;;
22610;SDS011;11472;45.494;12.142;2023-02-01T01:33:01;106.30;;;58.80;;
22610;SDS011;11472;45.494;12.142;2023-02-01T01:34:01;106.10;;;59.40;;
22610;SDS011;11472;45.494;12.142;2023-02-01T01:35:01;106.10;;;59.40;;
22610;SDS011;11472;45.494;12.142;2023-02-01T01:36:01;106.10;;;59.40;;
22610;SDS011;11472;45.494;12.142;2023-02-01T01:37:01;106.10;;;59.40;;
22610;SDS011;11472;45.494;12.142;2023-02-01T01:38:01;106.10;;;59.40;;
22610;SDS011;11472;45.494;12.142;2023-02-01T01:39:01;106.10;;;59.40;;
22610;SDS011;11472;45.494;12.142;2023-02-01T01:40:01;106.10;;;59.40;;
22610;SDS011;11472;45.494;12.142;2023-02-01T01:41:01;106.10;;;59.40;;
22610;SDS011;11472;45.494;12.142;2023-02-01T01:42:01;106.10;;;59.40;;
22610;SDS011;11472;45.494;12.142;2023-02-01T01:43:01;106.10;;;59.40;;
22610;SDS011;11472;45.494;12.142;2023-02-01T01:44:06;106.10;;;59.40;;
22610;SDS011;11472;45.494;12.142;2023-02-01T01:45:05;106.10;;;59.40;;
22610;SDS011;11472;45.494;12.142;2023-02-01T01:46:01;106.10;;;59.40;;
22610;SDS011;11472;45.494;12.142;2023-02-01T01:47:01;106.10;;;59.40;;
22610;SDS011;11472;45.494;12.142;2023-02-01T01:48:05;106.10;;;59.40;;
22610;SDS011;11472;45.494;12.142;2023-02-01T01:49:10;107.90;;;57.40;;
22610;SDS011;11472;45.494;12.142;2023-02-01T01:50:02;107.90;;;57.40;;
22610;SDS011;11472;45.494;12.142;2023-02-01T01:51:03;107.90;;;57.40;;
22610;SDS011;11472;45.494;12.142;2023-02-01T01:52:01;107.90;;;57.40;;
22610;SDS011;11472;45.494;12.142;2023-02-01T01:53:04;107.90;;;57.40;;
22610;SDS011;11472;45.494;12.142;2023-02-01T01:54:07;107.90;;;57.40;;
22610;SDS011;11472;45.494;12.142;2023-02-01T01:55:01;107.90;;;57.40;;
22610;SDS011;11472;45.494;12.142;2023-02-01T01:56:01;107.90;;;57.40;;
22610;SDS011;11472;45.494;12.142;2023-02-01T01:57:03;107.90;;;57.40;;
22610;SDS011;11472;45.494;12.142;2023-02-01T01:58:07;107.90;;;57.40;;
22610;SDS011;11472;45.494;12.142;2023-02-01T01:59:01;107.90;;;57.40;;
22610;SDS011;11472;45.494;12.142;2023-02-01T02:00:12;107.90;;;57.40;;
22610;SDS011;11472;45.494;12.142;2023-02-01T02:01:01;107.90;;;57.40;;
22610;SDS011;11472;45.494;12.142;2023-02-01T02:02:01;107.90;;;57.40;;
22610;SDS011;11472;45.494;12.142;2023-02-01T02:03:11;107.90;;;57.40;;
22610;SDS011;11472;45.494;12.142;2023-02-01T02:04:01;99.50;;;52.80;;
22610;SDS011;11472;45.494;12.142;2023-02-01T02:05:01;99.50;;;52.80;;
22610;SDS011;11472;45.494;12.142;2023-02-01T02:06:02;99.50;;;52.80;;
22610;SDS011;11472;45.494;12.142;2023-02-01T02:07:06;99.50;;;52.80;;
22610;SDS011;11472;45.494;12.142;2023-02-01T02:08:01;99.50;;;52.80;;
22610;SDS011;11472;45.494;12.142;2023-02-01T02:09:01;99.50;;;52.80;;
22610;SDS011;11472;45.494;12.142;2023-02-01T02:10:03;99.50;;;52.80;;
22610;SDS011;11472;45.494;12.142;2023-02-01T02:11:01;99.50;;;52.80;;
22610;SDS011;11472;45.494;12.142;2023-02-01T02:12:01;99.50;;;52.80;;
22610;SDS011;11472;45.494;12.142;2023-02-01T02:13:01;99.50;;;52.80;;
22610;SDS011;11472;45.494;12.142;2023-02-01T02:14:01;99.50;;;52.80;;
22610;SDS011;11472;45.494;12.142;2023-02-01T02:15:01;99.50;;;52.80;;
22610;SDS011;11472;45.494;12.142;2023-02-01T02:18:08;99.50;;;52.80;;
22610;SDS011;11472;45.494;12.142;2023-02-01T02:21:17;94.90;;;48.30;;
22610;SDS011;11472;45.494;12.142;2023-02-01T02:24:15;94.90;;;48.30;;
22610;SDS011;11472;45.494;12.142;2023-02-01T02:25:11;94.90;;;48.30;;
22610;SDS011;11472;45.494;12.142;2023-02-01T02:26:13;94.90;;;48.30;;
22610;SDS011;11472;45.494;12.142;2023-02-01T02:27:05;94.90;;;48.30;;
22610;SDS011;11472;45.494;12.142;2023-02-01T02:36:10;75.10;;;43.70;;
22610;SDS011;11472;45.494;12.142;2023-02-01T02:37:11;75.10;;;43.70;;
22610;SDS011;11472;45.494;12.142;2023-02-01T02:38:05;75.10;;;43.70;;
22610;SDS011;11472;45.494;12.142;2023-02-01T02:41:27;75.10;;;43.70;;
22610;SDS011;11472;45.494;12.142;2023-02-01T02:43:23;75.10;;;43.70;;
22610;SDS011;11472;45.494;12.142;2023-02-01T02:44:13;75.10;;;43.70;;
22610;SDS011;11472;45.494;12.142;2023-02-01T02:45:18;75.10;;;43.70;;
22610;SDS011;11472;45.494;12.142;2023-02-01T02:46:22;75.10;;;43.70;;
22610;SDS011;11472;45.494;12.142;2023-02-01T02:47:15;75.10;;;43.70;;
22610;SDS011;11472;45.494;12.142;2023-02-01T02:48:13;75.10;;;43.70;;
22610;SDS011;11472;45.494;12.142;2023-02-01T02:49:08;78.70;;;42.60;;
22610;SDS011;11472;45.494;12.142;2023-02-01T02:51:13;78.70;;;42.60;;
22610;SDS011;11472;45.494;12.142;2023-02-01T02:52:13;78.70;;;42.60;;
22610;SDS011;11472;45.494;12.142;2023-02-01T02:53:15;78.70;;;42.60;;
22610;SDS011;11472;45.494;12.142;2023-02-01T02:54:17;78.70;;;42.60;;
22610;SDS011;11472;45.494;12.142;2023-02-01T02:55:01;78.70;;;42.60;;
22610;SDS011;11472;45.494;12.142;2023-02-01T02:56:11;78.70;;;42.60;;
22610;SDS011;11472;45.494;12.142;2023-02-01T02:57:14;78.70;;;42.60;;
22610;SDS011;11472;45.494;12.142;2023-02-01T02:58:11;78.70;;;42.60;;
22610;SDS011;11472;45.494;12.142;2023-02-01T02:59:12;78.70;;;42.60;;
22610;SDS011;11472;45.494;12.142;2023-02-01T03:00:12;78.70;;;42.60;;
22610;SDS011;11472;45.494;12.142;2023-02-01T03:01:11;78.70;;;42.60;;
22610;SDS011;11472;45.494;12.142;2023-02-01T03:02:11;78.70;;;42.60;;
22610;SDS011;11472;45.494;12.142;2023-02-01T03:03:11;78.70;;;42.60;;
22610;SDS011;11472;45.494;12.142;2023-02-01T03:04:08;79.60;;;41.00;;
22610;SDS011;11472;45.494;12.142;2023-02-01T03:05:01;79.60;;;41.00;;
22610;SDS011;11472;45.494;12.142;2023-02-01T03:06:01;79.60;;;41.00;;
22610;SDS011;11472;45.494;12.142;2023-02-01T03:07:14;79.60;;;41.00;;
22610;SDS011;11472;45.494;12.142;2023-02-01T03:08:04;79.60;;;41.00;;
22610;SDS011;11472;45.494;12.142;2023-02-01T03:09:02;79.60;;;41.00;;
22610;SDS011;11472;45.494;12.142;2023-02-01T03:10:05;79.60;;;41.00;;
22610;SDS011;11472;45.494;12.142;2023-02-01T03:11:04;79.60;;;41.00;;
22610;SDS011;11472;45.494;12.142;2023-02-01T03:12:12;79.60;;;41.00;;
22610;SDS011;11472;45.494;12.142;2023-02-01T03:13:04;79.60;;;41.00;;
22610;SDS011;11472;45.494;12.142;2023-02-01T03:14:01;79.60;;;41.00;;
22610;SDS011;11472;45.494;12.142;2023-02-01T03:15:07;79.60;;;41.00;;
22610;SDS011;11472;45.494;12.142;2023-02-01T03:16:07;79.60;;;41.00;;
22610;SDS011;11472;45.494;12.142;2023-02-01T03:17:08;79.60;;;41.00;;
22610;SDS011;11472;45.494;12.142;2023-02-01T03:18:02;79.60;;;41.00;;
22610;SDS011;11472;45.494;12.142;2023-02-01T03:20:01;74.70;;;39.10;;
22610;SDS011;11472;45.494;12.142;2023-02-01T03:21:05;74.70;;;39.10;;
22610;SDS011;11472;45.494;12.142;2023-02-01T03:22:04;74.70;;;39.10;;
22610;SDS011;11472;45.494;12.142;2023-02-01T03:23:01;74.70;;;39.10;;
22610;SDS011;11472;45.494;12.142;2023-02-01T03:24:04;74.70;;;39.10;;
22610;SDS011;11472;45.494;12.142;2023-02-01T03:25:05;74.70;;;39.10;;
22610;SDS011;11472;45.494;12.142;2023-02-01T03:26:01;74.70;;;39.10;;
22610;SDS011;11472;45.494;12.142;2023-02-01T03:27:07;74.70;;;39.10;;
22610;SDS011;11472;45.494;12.142;2023-02-01T03:28:04;74.70;;;39.10;;
22610;SDS011;11472;45.494;12.142;2023-02-01T03:29:19;74.70;;;39.10;;
22610;SDS011;11472;45.494;12.142;2023-02-01T03:30:09;74.70;;;39.10;;
22610;SDS011;11472;45.494;12.142;2023-02-01T03:31:01;74.70;;;39.10;;
22610;SDS011;11472;45.494;12.142;2023-02-01T03:32:01;74.70;;;39.10;;
22610;SDS011;11472;45.494;12.142;2023-02-01T03:33:03;74.70;;;39.10;;
22610;SDS011;11472;45.494;12.142;2023-02-01T03:34:01;71.20;;;38.00;;
22610;SDS011;11472;45.494;12.142;2023-02-01T03:35:04;71.20;;;38.00;;
22610;SDS011;11472;45.494;12.142;2023-02-01T03:37:04;71.20;;;38.00;;
22610;SDS011;11472;45.494;12.142;2023-02-01T03:38:09;71.20;;;38.00;;
22610;SDS011;11472;45.494;12.142;2023-02-01T03:39:13;71.20;;;38.00;;
22610;SDS011;11472;45.494;12.142;2023-02-01T03:40:04;71.20;;;38.00;;
22610;SDS011;11472;45.494;12.142;2023-02-01T03:42:04;71.20;;;38.00;;
22610;SDS011;11472;45.494;12.142;2023-02-01T03:43:01;71.20;;;38.00;;
22610;SDS011;11472;45.494;12.142;2023-02-01T03:46:02;71.20;;;38.00;;
22610;SDS011;11472;45.494;12.142;2023-02-01T03:47:06;71.20;;;38.00;;
22610;SDS011;11472;45.494;12.142;2023-02-01T03:48:01;71.20;;;38.00;;
22610;SDS011;11472;45.494;12.142;2023-02-01T03:49:03;74.10;;;37.80;;
22610;SDS011;11472;45.494;12.142;2023-02-01T03:50:04;74.10;;;37.80;;
22610;SDS011;11472;45.494;12.142;2023-02-01T03:51:01;74.10;;;37.80;;
22610;SDS011;11472;45.494;12.142;2023-02-01T03:52:01;74.10;;;37.80;;
22610;SDS011;11472;45.494;12.142;2023-02-01T03:53:03;74.10;;;37.80;;
22610;SDS011;11472;45.494;12.142;2023-02-01T03:54:02;74.10;;;37.80;;
22610;SDS011;11472;45.494;12.142;2023-02-01T03:55:01;74.10;;;37.80;;
22610;SDS011;11472;45.494;12.142;2023-02-01T03:56:01;74.10;;;37.80;;
22610;SDS011;11472;45.494;12.142;2023-02-01T03:57:03;74.10;;;37.80;;
22610;SDS011;11472;45.494;12.142;2023-02-01T03:59:01;74.10;;;37.80;;
22610;SDS011;11472;45.494;12.142;2023-02-01T04:00:16;74.10;;;37.80;;
22610;SDS011;11472;45.494;12.142;2023-02-01T04:01:01;74.10;;;37.80;;
22610;SDS011;11472;45.494;12.142;2023-02-01T04:02:01;74.10;;;37.80;;
22610;SDS011;11472;45.494;12.142;2023-02-01T04:03:01;74.10;;;37.80;;
22610;SDS011;11472;45.494;12.142;2023-02-01T04:04:01;71.30;;;38.40;;
22610;SDS011;11472;45.494;12.142;2023-02-01T04:05:01;71.30;;;38.40;;
22610;SDS011;11472;45.494;12.142;2023-02-01T04:06:01;71.30;;;38.40;;
22610;SDS011;11472;45.494;12.142;2023-02-01T04:07:01;71.30;;;38.40;;
22610;SDS011;11472;45.494;12.142;2023-02-01T04:08:01;71.30;;;38.40;;
22610;SDS011;11472;45.494;12.142;2023-02-01T04:09:01;71.30;;;38.40;;
22610;SDS011;11472;45.494;12.142;2023-02-01T04:10:01;71.30;;;38.40;;
22610;SDS011;11472;45.494;12.142;2023-02-01T04:11:01;71.30;;;38.40;;
22610;SDS011;11472;45.494;12.142;2023-02-01T04:12:02;71.30;;;38.40;;
22610;SDS011;11472;45.494;12.142;2023-02-01T04:13:01;71.30;;;38.40;;
22610;SDS011;11472;45.494;12.142;2023-02-01T04:14:04;71.30;;;38.40;;
22610;SDS011;11472;45.494;12.142;2023-02-01T04:15:01;71.30;;;38.40;;
22610;SDS011;11472;45.494;12.142;2023-02-01T04:16:01;71.30;;;38.40;;
22610;SDS011;11472;45.494;12.142;2023-02-01T04:17:01;71.30;;;38.40;;
22610;SDS011;11472;45.494;12.142;2023-02-01T04:18:01;71.30;;;38.40;;
22610;SDS011;11472;45.494;12.142;2023-02-01T04:19:01;72.50;;;38.60;;
22610;SDS011;11472;45.494;12.142;2023-02-01T04:20:01;72.50;;;38.60;;
22610;SDS011;11472;45.494;12.142;2023-02-01T04:21:01;72.50;;;38.60;;
22610;SDS011;11472;45.494;12.142;2023-02-01T04:22:01;72.50;;;38.60;;
22610;SDS011;11472;45.494;12.142;2023-02-01T04:23:02;72.50;;;38.60;;
22610;SDS011;11472;45.494;12.142;2023-02-01T04:24:01;72.50;;;38.60;;
22610;SDS011;11472;45.494;12.142;2023-02-01T04:25:01;72.50;;;38.60;;
22610;SDS011;11472;45.494;12.142;2023-02-01T04:26:02;72.50;;;38.60;;
22610;SDS011;11472;45.494;12.142;2023-02-01T04:27:02;72.50;;;38.60;;
22610;SDS011;11472;45.494;12.142;2023-02-01T04:28:01;72.50;;;38.60;;
22610;SDS011;11472;45.494;12.142;2023-02-01T04:29:01;72.50;;;38.60;;
22610;SDS011;11472;45.494;12.142;2023-02-01T04:30:03;72.50;;;38.60;;
22610;SDS011;11472;45.494;12.142;2023-02-01T04:31:01;72.50;;;38.60;;
22610;SDS011;11472;45.494;12.142;2023-02-01T04:32:01;72.50;;;38.60;;
22610;SDS011;11472;45.494;12.142;2023-02-01T04:33:03;72.50;;;38.60;;
22610;SDS011;11472;45.494;12.142;2023-02-01T04:34:01;70.00;;;37.20;;
22610;SDS011;11472;45.494;12.142;2023-02-01T04:35:01;70.00;;;37.20;;
22610;SDS011;11472;45.494;12.142;2023-02-01T04:36:01;70.00;;;37.20;;
22610;SDS011;11472;45.494;12.142;2023-02-01T04:37:01;70.00;;;37.20;;
22610;SDS011;11472;45.494;12.142;2023-02-01T04:38:01;70.00;;;37.20;;
22610;SDS011;11472;45.494;12.142;2023-02-01T04:39:01;70.00;;;37.20;;
22610;SDS011;11472;45.494;12.142;2023-02-01T04:40:03;70.00;;;37.20;;
22610;SDS011;11472;45.494;12.142;2023-02-01T04:41:01;70.00;;;37.20;;
22610;SDS011;11472;45.494;12.142;2023-02-01T04:42:01;70.00;;;37.20;;
22610;SDS011;11472;45.494;12.142;2023-02-01T04:43:01;70.00;;;37.20;;
22610;SDS011;11472;45.494;12.142;2023-02-01T04:44:01;70.00;;;37.20;;
22610;SDS011;11472;45.494;12.142;2023-02-01T04:45:01;70.00;;;37.20;;
22610;SDS011;11472;45.494;12.142;2023-02-01T04:46:01;70.00;;;37.20;;
22610;SDS011;11472;45.494;12.142;2023-02-01T04:47:01;70.00;;;37.20;;
22610;SDS011;11472;45.494;12.142;2023-02-01T04:48:01;70.00;;;37.20;;
22610;SDS011;11472;45.494;12.142;2023-02-01T04:49:01;71.40;;;37.80;;
22610;SDS011;11472;45.494;12.142;2023-02-01T04:50:01;71.40;;;37.80;;
22610;SDS011;11472;45.494;12.142;2023-02-01T04:51:01;71.40;;;37.80;;
22610;SDS011;11472;45.494;12.142;2023-02-01T04:52:01;71.40;;;37.80;;
22610;SDS011;11472;45.494;12.142;2023-02-01T04:53:01;71.40;;;37.80;;
22610;SDS011;11472;45.494;12.142;2023-02-01T04:54:01;71.40;;;37.80;;
22610;SDS011;11472;45.494;12.142;2023-02-01T04:55:03;71.40;;;37.80;;
22610;SDS011;11472;45.494;12.142;2023-02-01T04:56:01;71.40;;;37.80;;
22610;SDS011;11472;45.494;12.142;2023-02-01T04:57:01;71.40;;;37.80;;
22610;SDS011;11472;45.494;12.142;2023-02-01T04:58:01;71.40;;;37.80;;
22610;SDS011;11472;45.494;12.142;2023-02-01T04:59:02;71.40;;;37.80;;
22610;SDS011;11472;45.494;12.142;2023-02-01T05:00:01;71.40;;;37.80;;
22610;SDS011;11472;45.494;12.142;2023-02-01T05:01:04;71.40;;;37.80;;
22610;SDS011;11472;45.494;12.142;2023-02-01T05:02:01;71.40;;;37.80;;
22610;SDS011;11472;45.494;12.142;2023-02-01T05:03:01;71.40;;;37.80;;
22610;SDS011;11472;45.494;12.142;2023-02-01T05:04:01;65.90;;;35.90;;
22610;SDS011;11472;45.494;12.142;2023-02-01T05:05:01;65.90;;;35.90;;
22610;SDS011;11472;45.494;12.142;2023-02-01T05:06:01;65.90;;;35.90;;
22610;SDS011;11472;45.494;12.142;2023-02-01T05:07:01;65.90;;;35.90;;
22610;SDS011;11472;45.494;12.142;2023-02-01T05:08:01;65.90;;;35.90;;
22610;SDS011;11472;45.494;12.142;2023-02-01T05:09:01;65.90;;;35.90;;
22610;SDS011;11472;45.494;12.142;2023-02-01T05:10:01;65.90;;;35.90;;
22610;SDS011;11472;45.494;12.142;2023-02-01T05:11:03;65.90;;;35.90;;
22610;SDS011;11472;45.494;12.142;2023-02-01T05:12:11;65.90;;;35.90;;
22610;SDS011;11472;45.494;12.142;2023-02-01T05:13:10;65.90;;;35.90;;
22610;SDS011;11472;45.494;12.142;2023-02-01T05:14:02;65.90;;;35.90;;
22610;SDS011;11472;45.494;12.142;2023-02-01T05:15:01;65.90;;;35.90;;
22610;SDS011;11472;45.494;12.142;2023-02-01T05:16:01;65.90;;;35.90;;
22610;SDS011;11472;45.494;12.142;2023-02-01T05:17:01;65.90;;;35.90;;
22610;SDS011;11472;45.494;12.142;2023-02-01T05:18:01;65.90;;;35.90;;
22610;SDS011;11472;45.494;12.142;2023-02-01T05:19:01;65.30;;;35.70;;
22610;SDS011;11472;45.494;12.142;2023-02-01T05:20:01;65.30;;;35.70;;
22610;SDS011;11472;45.494;12.142;2023-02-01T05:21:01;65.30;;;35.70;;
22610;SDS011;11472;45.494;12.142;2023-02-01T05:22:01;65.30;;;35.70;;
22610;SDS011;11472;45.494;12.142;2023-02-01T05:23:01;65.30;;;35.70;;
22610;SDS011;11472;45.494;12.142;2023-02-01T05:24:11;65.30;;;35.70;;
22610;SDS011;11472;45.494;12.142;2023-02-01T05:25:01;65.30;;;35.70;;
22610;SDS011;11472;45.494;12.142;2023-02-01T05:26:01;65.30;;;35.70;;
22610;SDS011;11472;45.494;12.142;2023-02-01T05:27:01;65.30;;;35.70;;
22610;SDS011;11472;45.494;12.142;2023-02-01T05:28:01;65.30;;;35.70;;
22610;SDS011;11472;45.494;12.142;2023-02-01T05:29:01;65.30;;;35.70;;
22610;SDS011;11472;45.494;12.142;2023-02-01T05:30:02;65.30;;;35.70;;
22610;SDS011;11472;45.494;12.142;2023-02-01T05:31:01;65.30;;;35.70;;
22610;SDS011;11472;45.494;12.142;2023-02-01T05:32:11;65.30;;;35.70;;
22610;SDS011;11472;45.494;12.142;2023-02-01T05:33:02;65.30;;;35.70;;
22610;SDS011;11472;45.494;12.142;2023-02-01T05:34:01;65.20;;;35.50;;
22610;SDS011;11472;45.494;12.142;2023-02-01T05:35:01;65.20;;;35.50;;
22610;SDS011;11472;45.494;12.142;2023-02-01T05:36:01;65.20;;;35.50;;
22610;SDS011;11472;45.494;12.142;2023-02-01T05:37:01;65.20;;;35.50;;
22610;SDS011;11472;45.494;12.142;2023-02-01T05:38:01;65.20;;;35.50;;
22610;SDS011;11472;45.494;12.142;2023-02-01T05:39:01;65.20;;;35.50;;
22610;SDS011;11472;45.494;12.142;2023-02-01T05:40:01;65.20;;;35.50;;
22610;SDS011;11472;45.494;12.142;2023-02-01T05:41:01;65.20;;;35.50;;
22610;SDS011;11472;45.494;12.142;2023-02-01T05:42:01;65.20;;;35.50;;
22610;SDS011;11472;45.494;12.142;2023-02-01T05:43:01;65.20;;;35.50;;
22610;SDS011;11472;45.494;12.142;2023-02-01T05:44:01;65.20;;;35.50;;
22610;SDS011;11472;45.494;12.142;2023-02-01T05:45:01;65.20;;;35.50;;
22610;SDS011;11472;45.494;12.142;2023-02-01T05:46:01;65.20;;;35.50;;
22610;SDS011;11472;45.494;12.142;2023-02-01T05:47:01;65.20;;;35.50;;
22610;SDS011;11472;45.494;12.142;2023-02-01T05:48:01;65.20;;;35.50;;
22610;SDS011;11472;45.494;12.142;2023-02-01T05:49:01;70.50;;;36.10;;
22610;SDS011;11472;45.494;12.142;2023-02-01T05:50:01;70.50;;;36.10;;
22610;SDS011;11472;45.494;12.142;2023-02-01T05:51:03;70.50;;;36.10;;
22610;SDS011;11472;45.494;12.142;2023-02-01T05:52:01;70.50;;;36.10;;
22610;SDS011;11472;45.494;12.142;2023-02-01T05:53:01;70.50;;;36.10;;
22610;SDS011;11472;45.494;12.142;2023-02-01T05:54:01;70.50;;;36.10;;
22610;SDS011;11472;45.494;12.142;2023-02-01T05:55:01;70.50;;;36.10;;
22610;SDS011;11472;45.494;12.142;2023-02-01T05:56:01;70.50;;;36.10;;
22610;SDS011;11472;45.494;12.142;2023-02-01T05:57:01;70.50;;;36.10;;
22610;SDS011;11472;45.494;12.142;2023-02-01T05:58:01;70.50;;;36.10;;
22610;SDS011;11472;45.494;12.142;2023-02-01T05:59:00;70.50;;;36.10;;
22610;SDS011;11472;45.494;12.142;2023-02-01T06:00:01;70.50;;;36.10;;
22610;SDS011;11472;45.494;12.142;2023-02-01T06:01:02;70.50;;;36.10;;
22610;SDS011;11472;45.494;12.142;2023-02-01T06:02:01;70.50;;;36.10;;
22610;SDS011;11472;45.494;12.142;2023-02-01T06:03:01;70.50;;;36.10;;
22610;SDS011;11472;45.494;12.142;2023-02-01T06:04:01;69.70;;;36.30;;
22610;SDS011;11472;45.494;12.142;2023-02-01T06:05:01;69.70;;;36.30;;
22610;SDS011;11472;45.494;12.142;2023-02-01T06:06:01;69.70;;;36.30;;
22610;SDS011;11472;45.494;12.142;2023-02-01T06:07:01;69.70;;;36.30;;
22610;SDS011;11472;45.494;12.142;2023-02-01T06:08:01;69.70;;;36.30;;
22610;SDS011;11472;45.494;12.142;2023-02-01T06:09:01;69.70;;;36.30;;
22610;SDS011;11472;45.494;12.142;2023-02-01T06:10:01;69.70;;;36.30;;